Pinsk, Belarus
Current Conditions -  °F | °C
As of 6:00 AM on Monday 24 Nov 2014 (Local Time) from UMBB Reporting Station
Haze Haze  
Wind Chill: 28°   Ceiling: 900
Heat Index: 32°   Visibility: 1.5mi
Dew Point: 32°   Wind: 4mph
Humidity: 100%   Direction: 100°E
Pressure: 30.48"   Gusts: NA
Location:  52.12°N, 26.1°E
Report Text: UMBB 240400Z 10002MPS 2400 BR OVC009 00/M00 Q1032 NOSIG
Loading
Personal Weather Stations






























Interactive Weather Map New forecast layout! Learn more

10-Day Weather Forecast

Advertisements
Track Severe Weather on mobile